Sunday, December 16, 2018, 3:31 AM GMT
Back to Local

CYQI, Yarmouth, N. S.

Location: , , Canada Lat: 43.833
Local Time: 3:31 AM GMT ( 3:31 GMT) Lon: -66.083
Time Zone: GMT Elev: 141 ft

Show me the last for .
Show Coded

Time T Td Feel RH Dir Speed Gust Alt SLP Vis Weather Sky Remarks
2018-12-16 03:00 30 27 24 86 350° 6 - 30.20 30.21 15 FEW250 None
2018-12-16 02:00 34 28 26 80 360° 9 - 30.19 30.20 15 FEW250 None
2018-12-16 01:00 34 28 30 80 360° 5 - 30.18 30.19 15 FEW250 None
2018-12-16 00:00 36 28 30 74 350° 7 - 30.19 30.19 15 SCT250 None
2018-12-15 23:00 37 28 33 69 320° 6 - 30.18 30.19 12 BKN250 None
2018-12-15 22:00 37 30 31 74 330° 9 - 30.15 30.16 12 BKN250 None
2018-12-15 21:00 39 28 32 64 340° 12 - 30.14 30.14 12 BKN250 None
2018-12-15 20:00 41 34 31 75 340° 16 22 30.12 30.13 12 FEW020 BKN250 None
2018-12-15 19:00 45 36 36 70 310° 15 24 30.09 30.10 10 FEW015 SCT250 None
2018-12-15 18:00 45 41 36 87 290° 15 22 30.07 30.08 10 FEW010 BKN250 None
2018-12-15 17:00 45 43 37 93 280° 12 18 30.08 30.09 8 FEW007 SCT090 BKN240 None
2018-12-15 16:00 43 43 36 100 270° 13 - 30.08 30.09 8 SCT004 OVC070 None
2018-12-15 15:00 43 41 37 93 280° 9 - 30.09 30.10 8 SCT007 BKN070 BKN250 None
2018-12-15 14:00 43 43 37 100 280° 12 - 30.10 30.11 8 FEW012 OVC100 None
2018-12-15 13:00 43 43 35 100 280° 12 18 30.09 30.10 6 BR SCT006 OVC018 None
2018-12-15 12:08 43 43 37 100 260° 12 - 30.08 30.09 3 BR SCT004 OVC015 None
2018-12-15 12:00 43 41 37 93 260° 10 - 30.08 30.09 3 BR BKN004 OVC018 None
2018-12-15 11:47 43 43 37 100 260° 10 - 30.08 30.09 3 BR OVC004 None
2018-12-15 11:40 43 41 35 93 250° 12 17 30.08 30.09 3 BR OVC003 None
2018-12-15 11:31 43 41 36 93 250° 13 - 30.08 30.09 2 -DZ BR OVC003 None
2018-12-15 11:00 43 43 34 100 250° 14 20 30.08 30.09 3 -DZ BR OVC004 None
2018-12-15 10:53 41 41 32 100 240° 12 17 30.08 30.09 3 -DZ BR OVC004 None
2018-12-15 10:05 41 41 36 100 240° 8 - 30.09 30.10 3 BR OVC005 None
2018-12-15 10:00 41 41 35 100 240° 9 - 30.09 30.10 3 BR OVC004 None
2018-12-15 09:27 41 41 32 100 220° 12 18 30.09 30.10 3 BR FEW003 BKN008 OVC060 None
2018-12-15 09:00 41 41 32 100 220° 13 20 30.10 30.11 2 BR BKN003 OVC047 None
2018-12-15 08:25 41 41 32 100 210° 10 18 30.11 30.12 2 BR BKN003 OVC071 None
2018-12-15 08:19 41 41 33 100 210° 14 - 30.11 30.12 1 BR BKN002 OVC046 None
2018-12-15 08:00 41 41 32 100 210° 12 17 30.13 30.14 1 BR OVC002 None
2018-12-15 07:36 41 41 35 100 220° 9 - 30.15 30.16 0 BR OVC002 None
2018-12-15 07:13 41 41 34 100 210° 13 - 30.16 30.17 0 FG VV003 None
2018-12-15 07:00 41 41 32 100 220° 12 20 30.17 30.17 0 BR VV003 None
2018-12-15 06:52 41 39 34 93 200° 13 - 30.17 30.18 0 BR OVC001 None
2018-12-15 06:22 39 39 32 100 210° 12 - 30.18 30.19 0 FG VV002 None
2018-12-15 06:07 39 39 30 100 200° 12 17 30.18 30.19 0 FG VV002 None
2018-12-15 06:00 39 39 32 100 200° 10 - 30.19 30.19 0 FG VV002 None
2018-12-15 05:45 39 37 32 93 200° 10 - 30.19 30.20 0 FG VV002 None
2018-12-15 05:18 39 37 30 93 210° 10 17 30.21 30.22 0 FG VV002 None
2018-12-15 05:00 37 37 29 100 200° 14 - 30.21 30.21 0 FG VV002 None
2018-12-15 04:48 37 37 30 100 190° 10 - 30.22 30.23 0 FG VV002 None
2018-12-15 04:44 37 36 30 93 180° 10 - 30.22 30.23 0 FG VV002 None
2018-12-15 04:40 36 36 29 100 180° 9 - 30.22 30.23 0 BR VV002 None
2018-12-15 04:37 36 36 29 100 180° 8 - 30.22 30.23 1 BR OVC001 None
2018-12-15 04:34 36 36 30 100 180° 7 - 30.22 30.23 2 BR OVC002 None
2018-12-15 04:30 36 36 30 100 180° 7 - 30.22 30.23 8 OVC003 None
2018-12-15 04:14 36 34 30 93 160° 7 - 30.23 30.24 15 OVC004 None
2018-12-15 04:09 36 34 31 93 160° 6 - 30.23 30.24 15 OVC005 None
2018-12-15 04:00 36 34 30 93 160° 7 - 30.24 30.24 15 OVC006 Pressure falling rapidly
2018-12-15 03:54 36 34 30 93 160° 7 - 30.24 30.25 15 SCT006 OVC200 None

Support USWX by starting your Amazon purchase here.